USCGC Polar Star — NBTM — position and weather

sailwx.info

Track history (hours):
 
Tides and Currents Weather Stations Pressure Air Temp Water Temp Dewpoint Dewpoint Depression Visibility Wind Speed Wind Dir Waves Ship Positions

Oceanographic research ship USCGC Polar Star (USA)

Detailed information on ship capabilities available from University of Delaware's Ocean Information Center and ARCUS's ALIAS (Arctic Logistics Information and Support) project.

Last reported at 2017-Sep-22 02:01 UTC. Time now 2017-Sep-22 13:43 UTC.
Position N 37°47' W 122°23'.

Type: Military. MMSI: 367255000.

Date/timePositionNaut miles runAvg speedWind from/ knotsBaromVisibWave heightAir tempDewpointWater temp
2017-Sep-22 02:01N 37°47' W 122°23'0 0.0
2017-Sep-22 01:28N 37°47' W 122°23'0 0.0
2017-Sep-22 01:00N 37°47' W 122°23'0 0.0
2017-Sep-22 00:27N 37°47' W 122°23'0 0.0
2017-Sep-22 00:00N 37°47' W 122°23'0 0.0
2017-Sep-21 22:47N 37°47' W 122°23'0 0.0
2017-Sep-21 22:29N 37°47' W 122°23'0 0.0
2017-Sep-21 21:59N 37°47' W 122°23'0 0.0
2017-Sep-21 21:30N 37°47' W 122°23'0 0.0
2017-Sep-21 21:00N 37°47' W 122°23'0 0.0
2017-Sep-21 20:30N 37°47' W 122°23'0 0.0
2017-Sep-21 20:00N 37°47' W 122°23'0 0.0
2017-Sep-21 19:30N 37°47' W 122°23'0 0.0
2017-Sep-21 19:00N 37°47' W 122°23'0 0.0
2017-Sep-21 18:30N 37°47' W 122°23'0 0.0
2017-Sep-21 17:59N 37°47' W 122°23'0 0.0
2017-Sep-21 17:29N 37°47' W 122°23'0 0.0
2017-Sep-21 16:59N 37°47' W 122°23'0 0.0
2017-Sep-21 16:26N 37°47' W 122°23'0 0.0
2017-Sep-21 15:59N 37°47' W 122°23'0 0.0
2017-Sep-21 02:40N 37°47' W 122°23'0 0.0
2017-Sep-21 02:28N 37°47' W 122°23'0 0.0
2017-Sep-21 01:58N 37°47' W 122°23'0 0.0
2017-Sep-21 01:28N 37°47' W 122°23'0 0.0
2017-Sep-21 00:58N 37°47' W 122°23'0 0.0
2017-Sep-21 00:28N 37°47' W 122°23'0 0.0
2017-Sep-20 21:07N 37°47' W 122°23'0 0.0
2017-Sep-20 20:55N 37°47' W 122°23'0 0.0
2017-Sep-20 20:28N 37°47' W 122°23'0 0.0
2017-Sep-20 20:00N 37°47' W 122°23'0 0.0
2017-Sep-20 19:30N 37°47' W 122°23'0 0.0
2017-Sep-20 19:00N 37°47' W 122°23'0 0.0
2017-Sep-20 18:30N 37°47' W 122°23'0 0.0
2017-Sep-20 17:55N 37°47' W 122°23'0 0.0
2017-Sep-20 17:30N 37°47' W 122°23'0 0.0
2017-Sep-20 16:57N 37°47' W 122°23'0 0.0
2017-Sep-20 16:28N 37°47' W 122°23'0 0.0
2017-Sep-20 15:58N 37°47' W 122°23'0 0.0
2017-Sep-20 15:31N 37°47' W 122°23'0 0.0
2017-Sep-20 14:58N 37°47' W 122°23'0 0.0
2017-Sep-20 13:58N 37°47' W 122°23'0 0.0
2017-Sep-20 13:28N 37°47' W 122°23'0 0.0
2017-Sep-20 12:58N 37°47' W 122°23'0 0.0
2017-Sep-20 12:28N 37°47' W 122°23'0 0.0
2017-Sep-20 11:58N 37°47' W 122°23'0 0.0
2017-Sep-20 11:28N 37°47' W 122°23'0 0.0
2017-Sep-20 10:58N 37°47' W 122°23'0 0.0
2017-Sep-20 10:28N 37°47' W 122°23'0 0.0
2017-Sep-20 09:58N 37°47' W 122°23'0 0.0
2017-Sep-20 09:28N 37°47' W 122°23'0 0.0
2017-Sep-20 08:58N 37°47' W 122°23'0 0.0
2017-Sep-20 08:25N 37°47' W 122°23'0 0.0
2017-Sep-20 07:58N 37°47' W 122°23'0 0.0
2017-Sep-20 07:28N 37°47' W 122°23'0 0.0
2017-Sep-20 06:58N 37°47' W 122°23'0 0.0
2017-Sep-20 06:28N 37°47' W 122°23'0 0.0
2017-Sep-20 05:55N 37°47' W 122°23'0 0.0
2017-Sep-20 05:28N 37°47' W 122°23'0 0.0
2017-Sep-20 04:58N 37°47' W 122°23'0 0.0
2017-Sep-20 04:28N 37°47' W 122°23'0 0.0
2017-Sep-20 03:55N 37°47' W 122°23'0 0.0
2017-Sep-20 03:28N 37°47' W 122°23'0 0.0
2017-Sep-20 02:58N 37°47' W 122°23'0 0.0
2017-Sep-20 02:28N 37°47' W 122°23'0 0.0
2017-Sep-20 01:52N 37°47' W 122°23'0 0.0
2017-Sep-20 01:28N 37°47' W 122°23'0 0.7
2017-Sep-20 01:01N 37°48' W 122°23'3 6.5
2017-Sep-20 00:31N 37°51' W 122°24'5 9.1
2017-Sep-20 00:00N 37°55' W 122°27'5 9.8
2017-Sep-19 23:31N 37°59' W 122°25'4 8.5
2017-Sep-19 23:00N 38°02' W 122°21'4 7.3
2017-Sep-19 22:30N 38°04' W 122°17'2 3.9
2017-Sep-19 21:59N 38°05' W 122°15'1 2.9
2017-Sep-19 21:31N 38°06' W 122°16'0 0.0
2017-Sep-19 21:01N 38°06' W 122°16'0 0.1
2017-Sep-19 20:30N 38°06' W 122°16'0 0.0
2017-Sep-19 20:00N 38°06' W 122°16'0 0.0
2017-Sep-19 19:25N 38°06' W 122°16'0 0.0
2017-Sep-19 18:56N 38°06' W 122°16'0 0.0
2017-Sep-19 18:26N 38°06' W 122°16'0 0.0
2017-Sep-19 17:50N 38°06' W 122°16'0 0.0
2017-Sep-19 16:03N 38°06' W 122°16'0 0.1
2017-Sep-19 15:57N 38°06' W 122°16'0 0.0
2017-Sep-19 15:26N 38°06' W 122°16'0 0.0
2017-Sep-19 14:56N 38°06' W 122°16'0 0.0
2017-Sep-19 14:26N 38°06' W 122°16'0 0.0
2017-Sep-19 13:56N 38°06' W 122°16'0 0.0
2017-Sep-19 13:26N 38°06' W 122°16'0 0.0
2017-Sep-19 12:56N 38°06' W 122°16'0 0.0
2017-Sep-19 12:02N 38°06' W 122°16'0 0.0
2017-Sep-19 11:50N 38°06' W 122°16'0 0.0
2017-Sep-19 11:26N 38°06' W 122°16'0 0.0
2017-Sep-19 10:44N 38°06' W 122°16'0 0.0
2017-Sep-19 10:20N 38°06' W 122°16'0 0.0
2017-Sep-19 09:14N 38°06' W 122°16'0 0.0
2017-Sep-19 08:56N 38°06' W 122°16'0 0.0
2017-Sep-19 08:26N 38°06' W 122°16'0 0.0
2017-Sep-19 07:50N 38°06' W 122°16'0 0.0
2017-Sep-19 07:27N 38°06' W 122°16'0 0.0
2017-Sep-19 06:15N 38°06' W 122°16'0 0.0
2017-Sep-19 05:57N 38°06' W 122°16'0 0.0
2017-Sep-19 05:26N 38°06' W 122°16'0 0.0
2017-Sep-19 04:56N 38°06' W 122°16'0 0.0
2017-Sep-19 04:20N 38°06' W 122°16'0 0.0
2017-Sep-19 03:56N 38°06' W 122°16'0 0.0
2017-Sep-19 03:26N 38°06' W 122°16'0 0.0
2017-Sep-19 02:50N 38°06' W 122°16'0 0.0
2017-Sep-19 02:26N 38°06' W 122°16'0 0.0
2017-Sep-19 01:56N 38°06' W 122°16'0 0.0
2017-Sep-19 01:15N 38°06' W 122°16'0 0.0
2017-Sep-19 00:57N 38°06' W 122°16'0 0.0
2017-Sep-19 00:27N 38°06' W 122°16'0 0.0
2017-Sep-18 23:56N 38°06' W 122°16'0 0.0
2017-Sep-18 23:26N 38°06' W 122°16'0 0.0
2017-Sep-18 22:56N 38°06' W 122°16'0 0.0
2017-Sep-18 22:26N 38°06' W 122°16'0 0.0
2017-Sep-18 21:56N 38°06' W 122°16'0 0.0
2017-Sep-18 21:26N 38°06' W 122°16'0 0.0
2017-Sep-18 20:56N 38°06' W 122°16'0 0.0
2017-Sep-18 20:14N 38°06' W 122°16'0 0.0
2017-Sep-18 19:14N 38°06' W 122°16'0 0.0
2017-Sep-18 18:50N 38°06' W 122°16'0 0.0
2017-Sep-18 18:20N 38°06' W 122°16'0 0.0
2017-Sep-18 17:57N 38°06' W 122°16'0 0.0
2017-Sep-18 17:27N 38°06' W 122°16'0 0.0
2017-Sep-18 16:57N 38°06' W 122°16'0 0.0
2017-Sep-18 16:26N 38°06' W 122°16'0 0.0
2017-Sep-18 15:08N 38°06' W 122°16'0 0.0
2017-Sep-18 14:56N 38°06' W 122°16'0 0.0
2017-Sep-18 13:38N 38°06' W 122°16'0 0.0
2017-Sep-18 13:08N 38°06' W 122°16'0 0.0
2017-Sep-18 12:50N 38°06' W 122°16'0 0.0
2017-Sep-18 11:26N 38°06' W 122°16'0 0.0
2017-Sep-18 10:51N 38°06' W 122°16'0 0.0
2017-Sep-18 10:27N 38°06' W 122°16'0 0.0
2017-Sep-18 09:21N 38°06' W 122°16'0 0.0
2017-Sep-18 08:51N 38°06' W 122°16'0 0.0
2017-Sep-18 08:27N 38°06' W 122°16'0 0.0
2017-Sep-18 07:57N 38°06' W 122°16'0 0.0
2017-Sep-18 07:20N 38°06' W 122°16'0 0.0
2017-Sep-18 06:56N 38°06' W 122°16'0 0.0
2017-Sep-18 06:20N 38°06' W 122°16'0 0.0
2017-Sep-18 05:32N 38°06' W 122°16'0 0.1
2017-Sep-18 05:26N 38°06' W 122°16'0 0.0
2017-Sep-18 04:56N 38°06' W 122°16'0 0.0
2017-Sep-18 04:26N 38°06' W 122°16'0 0.0
2017-Sep-18 03:56N 38°06' W 122°16'0 0.0
2017-Sep-18 03:26N 38°06' W 122°16'0 0.0
2017-Sep-18 02:56N 38°06' W 122°16'0 0.0
2017-Sep-18 02:26N 38°06' W 122°16'0 0.0
2017-Sep-18 01:57N 38°06' W 122°16'0 0.0
2017-Sep-18 01:27N 38°06' W 122°16'0 0.0
2017-Sep-18 00:57N 38°06' W 122°16'0 0.0
2017-Sep-18 00:27N 38°06' W 122°16'0 0.0
2017-Sep-17 23:56N 38°06' W 122°16'0 0.0
2017-Sep-17 23:26N 38°06' W 122°16'0 0.0
2017-Sep-17 22:56N 38°06' W 122°16'0 0.0
2017-Sep-17 22:26N 38°06' W 122°16'0 0.0
2017-Sep-17 21:56N 38°06' W 122°16'0 0.0
2017-Sep-17 21:26N 38°06' W 122°16'0 0.0
2017-Sep-17 20:56N 38°06' W 122°16'0 0.0
2017-Sep-17 20:26N 38°06' W 122°16'0 0.0
2017-Sep-17 19:56N 38°06' W 122°16'0 0.0
2017-Sep-17 19:20N 38°06' W 122°16'0 0.0
2017-Sep-17 18:57N 38°06' W 122°16'0 0.0
2017-Sep-17 18:27N 38°06' W 122°16'0 0.0
2017-Sep-17 17:57N 38°06' W 122°16'0 0.0
2017-Sep-17 17:26N 38°06' W 122°16'0 0.0
2017-Sep-17 16:56N 38°06' W 122°16'0 0.0
2017-Sep-17 16:26N 38°06' W 122°16'0 0.0
2017-Sep-17 15:50N 38°06' W 122°16'0 0.0
2017-Sep-17 15:26N 38°06' W 122°16'0 0.0
2017-Sep-17 14:56N 38°06' W 122°16'0 0.0
2017-Sep-17 14:08N 38°06' W 122°16'0 0.0
2017-Sep-17 13:08N 38°06' W 122°16'0 0.0
2017-Sep-17 12:56N 38°06' W 122°16'0 0.0
2017-Sep-17 12:26N 38°06' W 122°16'0 0.0
2017-Sep-17 11:56N 38°06' W 122°16'0 0.0
2017-Sep-17 11:27N 38°06' W 122°16'0 0.0
2017-Sep-17 10:57N 38°06' W 122°16'0 0.0
2017-Sep-17 10:27N 38°06' W 122°16'0 0.0
2017-Sep-17 09:56N 38°06' W 122°16'0 0.0
2017-Sep-17 09:26N 38°06' W 122°16'0 0.0
2017-Sep-17 08:56N 38°06' W 122°16'0 0.0
2017-Sep-17 08:26N 38°06' W 122°16'0 0.0
2017-Sep-17 07:56N 38°06' W 122°16'0 0.0
2017-Sep-17 07:20N 38°06' W 122°16'0 0.0
2017-Sep-17 06:50N 38°06' W 122°16'0 0.0
2017-Sep-17 06:26N 38°06' W 122°16'0 0.0
2017-Sep-17 05:56N 38°06' W 122°16'0 0.0
2017-Sep-17 05:26N 38°06' W 122°16'0 0.0
2017-Sep-17 04:56N 38°06' W 122°16'0 0.0
2017-Sep-17 04:26N 38°06' W 122°16'0 0.0
2017-Sep-17 03:57N 38°06' W 122°16'0 0.0
2017-Sep-17 03:27N 38°06' W 122°16'0 0.0
2017-Sep-17 02:57N 38°06' W 122°16'0 0.0
2017-Sep-17 02:21N 38°06' W 122°16'0 0.0
2017-Sep-17 01:57N 38°06' W 122°16'0 0.0
2017-Sep-17 01:21N 38°06' W 122°16'0 0.0
2017-Sep-17 00:57N 38°06' W 122°16'0 0.0
2017-Sep-17 00:27N 38°06' W 122°16'0 0.0
2017-Sep-16 23:56N 38°06' W 122°16'0 0.0
2017-Sep-16 23:02N 38°06' W 122°16'0 0.0
2017-Sep-16 22:50N 38°06' W 122°16'0 0.0
2017-Sep-16 22:20N 38°06' W 122°16'0 0.0
2017-Sep-16 21:50N 38°06' W 122°16'0 0.0
2017-Sep-16 21:26N 38°06' W 122°16'0 0.0
2017-Sep-16 20:50N 38°06' W 122°16'0 0.0
2017-Sep-16 20:20N 38°06' W 122°16'0 0.0
2017-Sep-16 19:03N 38°06' W 122°16'0 0.1
2017-Sep-16 18:57N 38°06' W 122°16'0 0.0
2017-Sep-16 18:27N 38°06' W 122°16'0 0.0
2017-Sep-16 17:57N 38°06' W 122°16'0 0.0
2017-Sep-16 17:21N 38°06' W 122°16'0 0.0
2017-Sep-16 16:57N 38°06' W 122°16'0 0.0
2017-Sep-16 16:26N 38°06' W 122°16'  
Track history (hours):
 
Tides and Currents Weather Stations Pressure Air Temp Water Temp Dewpoint Dewpoint Depression Visibility Wind Speed Wind Dir Waves Ship Positions

Oceanographic research ship USCGC Polar Star (USA)

Detailed information on ship capabilities available from University of Delaware's Ocean Information Center and ARCUS's ALIAS (Arctic Logistics Information and Support) project.

Last reported at 2017-Sep-22 02:01 UTC. Time now 2017-Sep-22 13:43 UTC.
Position N 37°47' W 122°23'.

Type: Military. MMSI: 367255000.

Date/timePositionNaut miles runAvg speedWind from/ knotsBaromVisibWave heightAir tempDewpointWater temp
2017-Sep-22 02:01N 37°47' W 122°23'0 0.0
2017-Sep-22 01:28N 37°47' W 122°23'0 0.0
2017-Sep-22 01:00N 37°47' W 122°23'0 0.0
2017-Sep-22 00:27N 37°47' W 122°23'0 0.0
2017-Sep-22 00:00N 37°47' W 122°23'0 0.0
2017-Sep-21 22:47N 37°47' W 122°23'0 0.0
2017-Sep-21 22:29N 37°47' W 122°23'0 0.0
2017-Sep-21 21:59N 37°47' W 122°23'0 0.0
2017-Sep-21 21:30N 37°47' W 122°23'0 0.0
2017-Sep-21 21:00N 37°47' W 122°23'0 0.0
2017-Sep-21 20:30N 37°47' W 122°23'0 0.0
2017-Sep-21 20:00N 37°47' W 122°23'0 0.0
2017-Sep-21 19:30N 37°47' W 122°23'0 0.0
2017-Sep-21 19:00N 37°47' W 122°23'0 0.0
2017-Sep-21 18:30N 37°47' W 122°23'0 0.0
2017-Sep-21 17:59N 37°47' W 122°23'0 0.0
2017-Sep-21 17:29N 37°47' W 122°23'0 0.0
2017-Sep-21 16:59N 37°47' W 122°23'0 0.0
2017-Sep-21 16:26N 37°47' W 122°23'0 0.0
2017-Sep-21 15:59N 37°47' W 122°23'0 0.0
2017-Sep-21 02:40N 37°47' W 122°23'0 0.0
2017-Sep-21 02:28N 37°47' W 122°23'0 0.0
2017-Sep-21 01:58N 37°47' W 122°23'0 0.0
2017-Sep-21 01:28N 37°47' W 122°23'0 0.0
2017-Sep-21 00:58N 37°47' W 122°23'0 0.0
2017-Sep-21 00:28N 37°47' W 122°23'0 0.0
2017-Sep-20 21:07N 37°47' W 122°23'0 0.0
2017-Sep-20 20:55N 37°47' W 122°23'0 0.0
2017-Sep-20 20:28N 37°47' W 122°23'0 0.0
2017-Sep-20 20:00N 37°47' W 122°23'0 0.0
2017-Sep-20 19:30N 37°47' W 122°23'0 0.0
2017-Sep-20 19:00N 37°47' W 122°23'0 0.0
2017-Sep-20 18:30N 37°47' W 122°23'0 0.0
2017-Sep-20 17:55N 37°47' W 122°23'0 0.0
2017-Sep-20 17:30N 37°47' W 122°23'0 0.0
2017-Sep-20 16:57N 37°47' W 122°23'0 0.0
2017-Sep-20 16:28N 37°47' W 122°23'0 0.0
2017-Sep-20 15:58N 37°47' W 122°23'0 0.0
2017-Sep-20 15:31N 37°47' W 122°23'0 0.0
2017-Sep-20 14:58N 37°47' W 122°23'0 0.0
2017-Sep-20 13:58N 37°47' W 122°23'0 0.0
2017-Sep-20 13:28N 37°47' W 122°23'0 0.0
2017-Sep-20 12:58N 37°47' W 122°23'0 0.0
2017-Sep-20 12:28N 37°47' W 122°23'0 0.0
2017-Sep-20 11:58N 37°47' W 122°23'0 0.0
2017-Sep-20 11:28N 37°47' W 122°23'0 0.0
2017-Sep-20 10:58N 37°47' W 122°23'0 0.0
2017-Sep-20 10:28N 37°47' W 122°23'0 0.0
2017-Sep-20 09:58N 37°47' W 122°23'0 0.0
2017-Sep-20 09:28N 37°47' W 122°23'0 0.0
2017-Sep-20 08:58N 37°47' W 122°23'0 0.0
2017-Sep-20 08:25N 37°47' W 122°23'0 0.0
2017-Sep-20 07:58N 37°47' W 122°23'0 0.0
2017-Sep-20 07:28N 37°47' W 122°23'0 0.0
2017-Sep-20 06:58N 37°47' W 122°23'0 0.0
2017-Sep-20 06:28N 37°47' W 122°23'0 0.0
2017-Sep-20 05:55N 37°47' W 122°23'0 0.0
2017-Sep-20 05:28N 37°47' W 122°23'0 0.0
2017-Sep-20 04:58N 37°47' W 122°23'0 0.0
2017-Sep-20 04:28N 37°47' W 122°23'0 0.0
2017-Sep-20 03:55N 37°47' W 122°23'0 0.0
2017-Sep-20 03:28N 37°47' W 122°23'0 0.0
2017-Sep-20 02:58N 37°47' W 122°23'0 0.0
2017-Sep-20 02:28N 37°47' W 122°23'0 0.0
2017-Sep-20 01:52N 37°47' W 122°23'0 0.0
2017-Sep-20 01:28N 37°47' W 122°23'0 0.7
2017-Sep-20 01:01N 37°48' W 122°23'3 6.5
2017-Sep-20 00:31N 37°51' W 122°24'5 9.1
2017-Sep-20 00:00N 37°55' W 122°27'5 9.8
2017-Sep-19 23:31N 37°59' W 122°25'4 8.5
2017-Sep-19 23:00N 38°02' W 122°21'4 7.3
2017-Sep-19 22:30N 38°04' W 122°17'2 3.9
2017-Sep-19 21:59N 38°05' W 122°15'1 2.9
2017-Sep-19 21:31N 38°06' W 122°16'0 0.0
2017-Sep-19 21:01N 38°06' W 122°16'0 0.1
2017-Sep-19 20:30N 38°06' W 122°16'0 0.0
2017-Sep-19 20:00N 38°06' W 122°16'0 0.0
2017-Sep-19 19:25N 38°06' W 122°16'0 0.0
2017-Sep-19 18:56N 38°06' W 122°16'0 0.0
2017-Sep-19 18:26N 38°06' W 122°16'0 0.0
2017-Sep-19 17:50N 38°06' W 122°16'0 0.0
2017-Sep-19 16:03N 38°06' W 122°16'0 0.1
2017-Sep-19 15:57N 38°06' W 122°16'0 0.0
2017-Sep-19 15:26N 38°06' W 122°16'0 0.0
2017-Sep-19 14:56N 38°06' W 122°16'0 0.0
2017-Sep-19 14:26N 38°06' W 122°16'0 0.0
2017-Sep-19 13:56N 38°06' W 122°16'0 0.0
2017-Sep-19 13:26N 38°06' W 122°16'0 0.0
2017-Sep-19 12:56N 38°06' W 122°16'0 0.0
2017-Sep-19 12:02N 38°06' W 122°16'0 0.0
2017-Sep-19 11:50N 38°06' W 122°16'0 0.0
2017-Sep-19 11:26N 38°06' W 122°16'0 0.0
2017-Sep-19 10:44N 38°06' W 122°16'0 0.0
2017-Sep-19 10:20N 38°06' W 122°16'0 0.0
2017-Sep-19 09:14N 38°06' W 122°16'0 0.0
2017-Sep-19 08:56N 38°06' W 122°16'0 0.0
2017-Sep-19 08:26N 38°06' W 122°16'0 0.0
2017-Sep-19 07:50N 38°06' W 122°16'0 0.0
2017-Sep-19 07:27N 38°06' W 122°16'0 0.0
2017-Sep-19 06:15N 38°06' W 122°16'0 0.0
2017-Sep-19 05:57N 38°06' W 122°16'0 0.0
2017-Sep-19 05:26N 38°06' W 122°16'0 0.0
2017-Sep-19 04:56N 38°06' W 122°16'0 0.0
2017-Sep-19 04:20N 38°06' W 122°16'0 0.0
2017-Sep-19 03:56N 38°06' W 122°16'0 0.0
2017-Sep-19 03:26N 38°06' W 122°16'0 0.0
2017-Sep-19 02:50N 38°06' W 122°16'0 0.0
2017-Sep-19 02:26N 38°06' W 122°16'0 0.0
2017-Sep-19 01:56N 38°06' W 122°16'0 0.0
2017-Sep-19 01:15N 38°06' W 122°16'0 0.0
2017-Sep-19 00:57N 38°06' W 122°16'0 0.0
2017-Sep-19 00:27N 38°06' W 122°16'0 0.0
2017-Sep-18 23:56N 38°06' W 122°16'0 0.0
2017-Sep-18 23:26N 38°06' W 122°16'0 0.0
2017-Sep-18 22:56N 38°06' W 122°16'0 0.0
2017-Sep-18 22:26N 38°06' W 122°16'0 0.0
2017-Sep-18 21:56N 38°06' W 122°16'0 0.0
2017-Sep-18 21:26N 38°06' W 122°16'0 0.0
2017-Sep-18 20:56N 38°06' W 122°16'0 0.0
2017-Sep-18 20:14N 38°06' W 122°16'0 0.0
2017-Sep-18 19:14N 38°06' W 122°16'0 0.0
2017-Sep-18 18:50N 38°06' W 122°16'0 0.0
2017-Sep-18 18:20N 38°06' W 122°16'0 0.0
2017-Sep-18 17:57N 38°06' W 122°16'0 0.0
2017-Sep-18 17:27N 38°06' W 122°16'0 0.0
2017-Sep-18 16:57N 38°06' W 122°16'0 0.0
2017-Sep-18 16:26N 38°06' W 122°16'0 0.0
2017-Sep-18 15:08N 38°06' W 122°16'0 0.0
2017-Sep-18 14:56N 38°06' W 122°16'0 0.0
2017-Sep-18 13:38N 38°06' W 122°16'0 0.0
2017-Sep-18 13:08N 38°06' W 122°16'0 0.0
2017-Sep-18 12:50N 38°06' W 122°16'0 0.0
2017-Sep-18 11:26N 38°06' W 122°16'0 0.0
2017-Sep-18 10:51N 38°06' W 122°16'0 0.0
2017-Sep-18 10:27N 38°06' W 122°16'0 0.0
2017-Sep-18 09:21N 38°06' W 122°16'0 0.0
2017-Sep-18 08:51N 38°06' W 122°16'0 0.0
2017-Sep-18 08:27N 38°06' W 122°16'0 0.0
2017-Sep-18 07:57N 38°06' W 122°16'0 0.0
2017-Sep-18 07:20N 38°06' W 122°16'0 0.0
2017-Sep-18 06:56N 38°06' W 122°16'0 0.0
2017-Sep-18 06:20N 38°06' W 122°16'0 0.0
2017-Sep-18 05:32N 38°06' W 122°16'0 0.1
2017-Sep-18 05:26N 38°06' W 122°16'0 0.0
2017-Sep-18 04:56N 38°06' W 122°16'0 0.0
2017-Sep-18 04:26N 38°06' W 122°16'0 0.0
2017-Sep-18 03:56N 38°06' W 122°16'0 0.0
2017-Sep-18 03:26N 38°06' W 122°16'0 0.0
2017-Sep-18 02:56N 38°06' W 122°16'0 0.0
2017-Sep-18 02:26N 38°06' W 122°16'0 0.0
2017-Sep-18 01:57N 38°06' W 122°16'0 0.0
2017-Sep-18 01:27N 38°06' W 122°16'0 0.0
2017-Sep-18 00:57N 38°06' W 122°16'0 0.0
2017-Sep-18 00:27N 38°06' W 122°16'0 0.0
2017-Sep-17 23:56N 38°06' W 122°16'0 0.0
2017-Sep-17 23:26N 38°06' W 122°16'0 0.0
2017-Sep-17 22:56N 38°06' W 122°16'0 0.0
2017-Sep-17 22:26N 38°06' W 122°16'0 0.0
2017-Sep-17 21:56N 38°06' W 122°16'0 0.0
2017-Sep-17 21:26N 38°06' W 122°16'0 0.0
2017-Sep-17 20:56N 38°06' W 122°16'0 0.0
2017-Sep-17 20:26N 38°06' W 122°16'0 0.0
2017-Sep-17 19:56N 38°06' W 122°16'0 0.0
2017-Sep-17 19:20N 38°06' W 122°16'0 0.0
2017-Sep-17 18:57N 38°06' W 122°16'0 0.0
2017-Sep-17 18:27N 38°06' W 122°16'0 0.0
2017-Sep-17 17:57N 38°06' W 122°16'0 0.0
2017-Sep-17 17:26N 38°06' W 122°16'0 0.0
2017-Sep-17 16:56N 38°06' W 122°16'0 0.0
2017-Sep-17 16:26N 38°06' W 122°16'0 0.0
2017-Sep-17 15:50N 38°06' W 122°16'0 0.0
2017-Sep-17 15:26N 38°06' W 122°16'0 0.0
2017-Sep-17 14:56N 38°06' W 122°16'0 0.0
2017-Sep-17 14:08N 38°06' W 122°16'0 0.0
2017-Sep-17 13:08N 38°06' W 122°16'0 0.0
2017-Sep-17 12:56N 38°06' W 122°16'0 0.0
2017-Sep-17 12:26N 38°06' W 122°16'0 0.0
2017-Sep-17 11:56N 38°06' W 122°16'0 0.0
2017-Sep-17 11:27N 38°06' W 122°16'0 0.0
2017-Sep-17 10:57N 38°06' W 122°16'0 0.0
2017-Sep-17 10:27N 38°06' W 122°16'0 0.0
2017-Sep-17 09:56N 38°06' W 122°16'0 0.0
2017-Sep-17 09:26N 38°06' W 122°16'0 0.0
2017-Sep-17 08:56N 38°06' W 122°16'0 0.0
2017-Sep-17 08:26N 38°06' W 122°16'0 0.0
2017-Sep-17 07:56N 38°06' W 122°16'0 0.0
2017-Sep-17 07:20N 38°06' W 122°16'0 0.0
2017-Sep-17 06:50N 38°06' W 122°16'0 0.0
2017-Sep-17 06:26N 38°06' W 122°16'0 0.0
2017-Sep-17 05:56N 38°06' W 122°16'0 0.0
2017-Sep-17 05:26N 38°06' W 122°16'0 0.0
2017-Sep-17 04:56N 38°06' W 122°16'0 0.0
2017-Sep-17 04:26N 38°06' W 122°16'0 0.0
2017-Sep-17 03:57N 38°06' W 122°16'0 0.0
2017-Sep-17 03:27N 38°06' W 122°16'0 0.0
2017-Sep-17 02:57N 38°06' W 122°16'0 0.0
2017-Sep-17 02:21N 38°06' W 122°16'0 0.0
2017-Sep-17 01:57N 38°06' W 122°16'0 0.0
2017-Sep-17 01:21N 38°06' W 122°16'0 0.0
2017-Sep-17 00:57N 38°06' W 122°16'0 0.0
2017-Sep-17 00:27N 38°06' W 122°16'0 0.0
2017-Sep-16 23:56N 38°06' W 122°16'0 0.0
2017-Sep-16 23:02N 38°06' W 122°16'0 0.0
2017-Sep-16 22:50N 38°06' W 122°16'0 0.0
2017-Sep-16 22:20N 38°06' W 122°16'0 0.0
2017-Sep-16 21:50N 38°06' W 122°16'0 0.0
2017-Sep-16 21:26N 38°06' W 122°16'0 0.0
2017-Sep-16 20:50N 38°06' W 122°16'0 0.0
2017-Sep-16 20:20N 38°06' W 122°16'0 0.0
2017-Sep-16 19:03N 38°06' W 122°16'0 0.1
2017-Sep-16 18:57N 38°06' W 122°16'0 0.0
2017-Sep-16 18:27N 38°06' W 122°16'0 0.0
2017-Sep-16 17:57N 38°06' W 122°16'0 0.0
2017-Sep-16 17:21N 38°06' W 122°16'0 0.0
2017-Sep-16 16:57N 38°06' W 122°16'0 0.0
2017-Sep-16 16:26N 38°06' W 122°16'  

Dump ship's entire track history